sensor_id;sensor_type;location;lat;lon;timestamp;P1;durP1;ratioP1;P2;durP2;ratioP2
8714;SDS011;4394;51.208;8.904;2023-07-08T00:00:14;3.50;;;2.70;;
8714;SDS011;4394;51.208;8.904;2023-07-08T00:03:05;5.40;;;2.83;;
8714;SDS011;4394;51.208;8.904;2023-07-08T00:05:55;3.07;;;2.60;;
8714;SDS011;4394;51.208;8.904;2023-07-08T00:08:43;4.37;;;2.70;;
8714;SDS011;4394;51.208;8.904;2023-07-08T00:11:32;3.83;;;2.93;;
8714;SDS011;4394;51.208;8.904;2023-07-08T00:14:20;4.60;;;2.67;;
8714;SDS011;4394;51.208;8.904;2023-07-08T00:17:09;3.67;;;3.13;;
8714;SDS011;4394;51.208;8.904;2023-07-08T00:19:59;5.97;;;2.90;;
8714;SDS011;4394;51.208;8.904;2023-07-08T00:22:49;5.80;;;2.80;;
8714;SDS011;4394;51.208;8.904;2023-07-08T00:25:37;2.87;;;2.60;;
8714;SDS011;4394;51.208;8.904;2023-07-08T00:28:25;5.43;;;2.80;;
8714;SDS011;4394;51.208;8.904;2023-07-08T00:31:13;4.20;;;2.55;;
8714;SDS011;4394;51.208;8.904;2023-07-08T00:34:01;3.97;;;2.90;;
8714;SDS011;4394;51.208;8.904;2023-07-08T00:36:50;4.00;;;2.80;;
8714;SDS011;4394;51.208;8.904;2023-07-08T00:39:39;3.30;;;2.60;;
8714;SDS011;4394;51.208;8.904;2023-07-08T00:42:27;5.47;;;3.07;;
8714;SDS011;4394;51.208;8.904;2023-07-08T00:45:18;4.63;;;2.50;;
8714;SDS011;4394;51.208;8.904;2023-07-08T00:48:18;4.00;;;2.37;;
8714;SDS011;4394;51.208;8.904;2023-07-08T00:51:09;2.87;;;2.50;;
8714;SDS011;4394;51.208;8.904;2023-07-08T00:53:58;3.30;;;2.72;;
8714;SDS011;4394;51.208;8.904;2023-07-08T00:56:49;3.57;;;2.80;;
8714;SDS011;4394;51.208;8.904;2023-07-08T00:59:42;3.73;;;3.00;;
8714;SDS011;4394;51.208;8.904;2023-07-08T01:02:35;3.92;;;2.60;;
8714;SDS011;4394;51.208;8.904;2023-07-08T01:05:28;5.47;;;3.10;;
8714;SDS011;4394;51.208;8.904;2023-07-08T01:08:19;3.10;;;2.80;;
8714;SDS011;4394;51.208;8.904;2023-07-08T01:11:15;3.30;;;2.83;;
8714;SDS011;4394;51.208;8.904;2023-07-08T01:14:04;2.73;;;2.53;;
8714;SDS011;4394;51.208;8.904;2023-07-08T01:16:54;5.10;;;2.80;;
8714;SDS011;4394;51.208;8.904;2023-07-08T01:19:43;2.83;;;2.60;;
8714;SDS011;4394;51.208;8.904;2023-07-08T01:22:35;4.43;;;2.57;;
8714;SDS011;4394;51.208;8.904;2023-07-08T01:25:24;3.67;;;2.57;;
8714;SDS011;4394;51.208;8.904;2023-07-08T01:28:12;3.97;;;3.00;;
8714;SDS011;4394;51.208;8.904;2023-07-08T01:31:01;5.53;;;2.73;;
8714;SDS011;4394;51.208;8.904;2023-07-08T01:33:51;3.13;;;2.60;;
8714;SDS011;4394;51.208;8.904;2023-07-08T01:36:40;4.50;;;2.80;;
8714;SDS011;4394;51.208;8.904;2023-07-08T01:39:34;5.40;;;2.77;;
8714;SDS011;4394;51.208;8.904;2023-07-08T01:42:23;2.70;;;2.50;;
8714;SDS011;4394;51.208;8.904;2023-07-08T01:45:11;5.30;;;2.63;;
8714;SDS011;4394;51.208;8.904;2023-07-08T01:48:02;5.17;;;3.20;;
8714;SDS011;4394;51.208;8.904;2023-07-08T01:50:54;3.47;;;2.57;;
8714;SDS011;4394;51.208;8.904;2023-07-08T01:53:47;3.67;;;2.77;;
8714;SDS011;4394;51.208;8.904;2023-07-08T01:56:36;3.83;;;2.80;;
8714;SDS011;4394;51.208;8.904;2023-07-08T01:59:24;4.30;;;2.77;;
8714;SDS011;4394;51.208;8.904;2023-07-08T02:02:12;3.23;;;2.53;;
8714;SDS011;4394;51.208;8.904;2023-07-08T02:05:01;3.35;;;2.88;;
8714;SDS011;4394;51.208;8.904;2023-07-08T02:07:49;3.80;;;2.63;;
8714;SDS011;4394;51.208;8.904;2023-07-08T02:10:37;3.03;;;2.70;;
8714;SDS011;4394;51.208;8.904;2023-07-08T02:13:27;2.80;;;2.60;;
8714;SDS011;4394;51.208;8.904;2023-07-08T02:16:15;3.33;;;2.73;;
8714;SDS011;4394;51.208;8.904;2023-07-08T02:19:04;3.77;;;2.70;;
8714;SDS011;4394;51.208;8.904;2023-07-08T02:21:52;4.50;;;2.70;;
8714;SDS011;4394;51.208;8.904;2023-07-08T02:24:40;3.90;;;2.67;;
8714;SDS011;4394;51.208;8.904;2023-07-08T02:27:28;4.73;;;3.03;;
8714;SDS011;4394;51.208;8.904;2023-07-08T02:30:17;3.57;;;2.77;;
8714;SDS011;4394;51.208;8.904;2023-07-08T02:33:05;3.37;;;3.00;;
8714;SDS011;4394;51.208;8.904;2023-07-08T02:35:56;4.07;;;2.70;;
8714;SDS011;4394;51.208;8.904;2023-07-08T02:38:44;3.77;;;2.50;;
8714;SDS011;4394;51.208;8.904;2023-07-08T02:41:32;3.10;;;2.80;;
8714;SDS011;4394;51.208;8.904;2023-07-08T02:44:20;4.13;;;2.93;;
8714;SDS011;4394;51.208;8.904;2023-07-08T02:47:09;3.37;;;2.93;;
8714;SDS011;4394;51.208;8.904;2023-07-08T02:49:57;3.10;;;2.80;;
8714;SDS011;4394;51.208;8.904;2023-07-08T02:52:45;4.50;;;2.90;;
8714;SDS011;4394;51.208;8.904;2023-07-08T02:55:33;3.03;;;2.73;;
8714;SDS011;4394;51.208;8.904;2023-07-08T02:58:21;3.60;;;2.83;;
8714;SDS011;4394;51.208;8.904;2023-07-08T03:01:09;3.93;;;2.87;;
8714;SDS011;4394;51.208;8.904;2023-07-08T03:03:59;3.40;;;3.10;;
8714;SDS011;4394;51.208;8.904;2023-07-08T03:06:49;3.50;;;2.77;;
8714;SDS011;4394;51.208;8.904;2023-07-08T03:09:38;3.65;;;3.00;;
8714;SDS011;4394;51.208;8.904;2023-07-08T03:12:26;3.57;;;3.20;;
8714;SDS011;4394;51.208;8.904;2023-07-08T03:15:14;4.17;;;3.00;;
8714;SDS011;4394;51.208;8.904;2023-07-08T03:18:03;4.27;;;3.07;;
8714;SDS011;4394;51.208;8.904;2023-07-08T03:20:53;4.63;;;2.77;;
8714;SDS011;4394;51.208;8.904;2023-07-08T03:23:43;4.23;;;3.10;;
8714;SDS011;4394;51.208;8.904;2023-07-08T03:26:31;3.33;;;3.00;;
8714;SDS011;4394;51.208;8.904;2023-07-08T03:29:20;4.03;;;2.73;;
8714;SDS011;4394;51.208;8.904;2023-07-08T03:32:09;3.73;;;2.87;;
8714;SDS011;4394;51.208;8.904;2023-07-08T03:34:59;3.25;;;2.95;;
8714;SDS011;4394;51.208;8.904;2023-07-08T03:37:49;3.20;;;2.90;;
8714;SDS011;4394;51.208;8.904;2023-07-08T03:40:37;3.77;;;3.03;;
8714;SDS011;4394;51.208;8.904;2023-07-08T03:43:25;3.67;;;3.00;;
8714;SDS011;4394;51.208;8.904;2023-07-08T03:46:13;3.10;;;2.80;;
8714;SDS011;4394;51.208;8.904;2023-07-08T03:49:02;5.70;;;3.60;;
8714;SDS011;4394;51.208;8.904;2023-07-08T03:51:51;4.03;;;3.10;;
8714;SDS011;4394;51.208;8.904;2023-07-08T03:54:42;3.93;;;2.83;;
8714;SDS011;4394;51.208;8.904;2023-07-08T03:57:30;3.87;;;3.20;;
8714;SDS011;4394;51.208;8.904;2023-07-08T04:00:18;6.03;;;3.20;;
8714;SDS011;4394;51.208;8.904;2023-07-08T04:03:07;3.50;;;3.20;;
8714;SDS011;4394;51.208;8.904;2023-07-08T04:05:58;4.07;;;2.90;;
8714;SDS011;4394;51.208;8.904;2023-07-08T04:08:46;3.83;;;2.90;;
8714;SDS011;4394;51.208;8.904;2023-07-08T04:11:35;4.37;;;3.07;;
8714;SDS011;4394;51.208;8.904;2023-07-08T04:14:23;3.47;;;2.90;;
8714;SDS011;4394;51.208;8.904;2023-07-08T04:17:11;7.43;;;3.03;;
8714;SDS011;4394;51.208;8.904;2023-07-08T04:20:01;3.93;;;2.77;;
8714;SDS011;4394;51.208;8.904;2023-07-08T04:22:50;4.57;;;2.93;;
8714;SDS011;4394;51.208;8.904;2023-07-08T04:25:38;3.33;;;3.00;;
8714;SDS011;4394;51.208;8.904;2023-07-08T04:28:28;4.63;;;3.30;;
8714;SDS011;4394;51.208;8.904;2023-07-08T04:31:16;5.17;;;3.50;;
8714;SDS011;4394;51.208;8.904;2023-07-08T04:34:04;5.03;;;3.17;;
8714;SDS011;4394;51.208;8.904;2023-07-08T04:36:53;3.50;;;3.20;;
8714;SDS011;4394;51.208;8.904;2023-07-08T04:39:41;5.83;;;3.30;;
8714;SDS011;4394;51.208;8.904;2023-07-08T04:42:29;5.00;;;3.40;;
8714;SDS011;4394;51.208;8.904;2023-07-08T04:45:18;4.33;;;3.03;;
8714;SDS011;4394;51.208;8.904;2023-07-08T04:48:07;3.83;;;3.10;;
8714;SDS011;4394;51.208;8.904;2023-07-08T04:50:59;4.90;;;3.00;;
8714;SDS011;4394;51.208;8.904;2023-07-08T04:53:47;3.97;;;3.40;;
8714;SDS011;4394;51.208;8.904;2023-07-08T04:56:36;5.97;;;3.13;;
8714;SDS011;4394;51.208;8.904;2023-07-08T04:59:26;3.30;;;3.00;;
8714;SDS011;4394;51.208;8.904;2023-07-08T05:02:15;3.37;;;3.07;;
8714;SDS011;4394;51.208;8.904;2023-07-08T05:05:04;5.13;;;3.07;;
8714;SDS011;4394;51.208;8.904;2023-07-08T05:07:52;4.07;;;3.47;;
8714;SDS011;4394;51.208;8.904;2023-07-08T05:10:40;3.33;;;2.77;;
8714;SDS011;4394;51.208;8.904;2023-07-08T05:13:28;3.87;;;3.37;;
8714;SDS011;4394;51.208;8.904;2023-07-08T05:16:16;5.17;;;3.63;;
8714;SDS011;4394;51.208;8.904;2023-07-08T05:19:06;5.50;;;3.53;;
8714;SDS011;4394;51.208;8.904;2023-07-08T05:21:54;7.03;;;3.13;;
8714;SDS011;4394;51.208;8.904;2023-07-08T05:24:42;4.53;;;3.40;;
8714;SDS011;4394;51.208;8.904;2023-07-08T05:27:33;3.37;;;3.07;;
8714;SDS011;4394;51.208;8.904;2023-07-08T05:30:21;4.93;;;3.30;;
8714;SDS011;4394;51.208;8.904;2023-07-08T05:33:09;3.80;;;3.07;;
8714;SDS011;4394;51.208;8.904;2023-07-08T05:35:59;4.83;;;3.33;;
8714;SDS011;4394;51.208;8.904;2023-07-08T05:38:47;4.33;;;3.40;;
8714;SDS011;4394;51.208;8.904;2023-07-08T05:41:36;4.70;;;3.63;;
8714;SDS011;4394;51.208;8.904;2023-07-08T05:44:24;5.40;;;3.17;;
8714;SDS011;4394;51.208;8.904;2023-07-08T05:47:12;5.07;;;3.27;;
8714;SDS011;4394;51.208;8.904;2023-07-08T05:50:00;4.40;;;3.03;;
8714;SDS011;4394;51.208;8.904;2023-07-08T05:52:49;4.53;;;3.50;;
8714;SDS011;4394;51.208;8.904;2023-07-08T05:55:39;4.63;;;3.60;;
8714;SDS011;4394;51.208;8.904;2023-07-08T05:58:29;3.50;;;3.20;;
8714;SDS011;4394;51.208;8.904;2023-07-08T06:01:17;5.47;;;3.50;;
8714;SDS011;4394;51.208;8.904;2023-07-08T06:04:05;4.47;;;3.42;;
8714;SDS011;4394;51.208;8.904;2023-07-08T06:06:53;5.13;;;3.27;;
8714;SDS011;4394;51.208;8.904;2023-07-08T06:09:43;4.27;;;3.20;;
8714;SDS011;4394;51.208;8.904;2023-07-08T06:12:31;5.40;;;3.63;;
8714;SDS011;4394;51.208;8.904;2023-07-08T06:15:19;6.67;;;3.43;;
8714;SDS011;4394;51.208;8.904;2023-07-08T06:18:07;4.53;;;3.43;;
8714;SDS011;4394;51.208;8.904;2023-07-08T06:20:56;4.03;;;3.00;;
8714;SDS011;4394;51.208;8.904;2023-07-08T06:23:45;4.77;;;3.80;;
8714;SDS011;4394;51.208;8.904;2023-07-08T06:26:35;3.30;;;3.00;;
8714;SDS011;4394;51.208;8.904;2023-07-08T06:29:23;4.27;;;3.40;;
8714;SDS011;4394;51.208;8.904;2023-07-08T06:32:11;6.67;;;3.77;;
8714;SDS011;4394;51.208;8.904;2023-07-08T06:35:00;3.90;;;3.33;;
8714;SDS011;4394;51.208;8.904;2023-07-08T06:37:48;7.27;;;3.80;;
8714;SDS011;4394;51.208;8.904;2023-07-08T06:40:36;4.90;;;3.45;;
8714;SDS011;4394;51.208;8.904;2023-07-08T06:43:25;4.33;;;3.33;;
8714;SDS011;4394;51.208;8.904;2023-07-08T06:46:14;5.03;;;3.60;;
8714;SDS011;4394;51.208;8.904;2023-07-08T06:49:02;4.60;;;3.60;;
8714;SDS011;4394;51.208;8.904;2023-07-08T06:51:50;4.03;;;3.27;;
8714;SDS011;4394;51.208;8.904;2023-07-08T06:54:38;5.47;;;3.53;;
8714;SDS011;4394;51.208;8.904;2023-07-08T06:57:26;6.27;;;3.50;;
8714;SDS011;4394;51.208;8.904;2023-07-08T07:00:16;4.17;;;3.60;;
8714;SDS011;4394;51.208;8.904;2023-07-08T07:03:05;4.27;;;3.57;;
8714;SDS011;4394;51.208;8.904;2023-07-08T07:05:53;6.63;;;3.50;;
8714;SDS011;4394;51.208;8.904;2023-07-08T07:08:42;4.50;;;3.57;;
8714;SDS011;4394;51.208;8.904;2023-07-08T07:11:30;5.97;;;3.50;;
8714;SDS011;4394;51.208;8.904;2023-07-08T07:14:18;7.27;;;3.80;;
8714;SDS011;4394;51.208;8.904;2023-07-08T07:17:10;4.03;;;3.60;;
8714;SDS011;4394;51.208;8.904;2023-07-08T07:19:58;7.03;;;4.17;;
8714;SDS011;4394;51.208;8.904;2023-07-08T07:22:46;6.27;;;3.73;;
8714;SDS011;4394;51.208;8.904;2023-07-08T07:25:34;4.20;;;3.80;;
8714;SDS011;4394;51.208;8.904;2023-07-08T07:28:22;4.00;;;3.50;;
8714;SDS011;4394;51.208;8.904;2023-07-08T07:31:10;4.07;;;3.60;;
8714;SDS011;4394;51.208;8.904;2023-07-08T07:34:00;5.30;;;3.40;;
8714;SDS011;4394;51.208;8.904;2023-07-08T07:36:49;4.87;;;3.60;;
8714;SDS011;4394;51.208;8.904;2023-07-08T07:39:37;5.47;;;3.33;;
8714;SDS011;4394;51.208;8.904;2023-07-08T07:42:26;5.53;;;3.83;;
8714;SDS011;4394;51.208;8.904;2023-07-08T07:45:15;4.87;;;3.50;;
8714;SDS011;4394;51.208;8.904;2023-07-08T07:48:03;5.47;;;3.47;;
8714;SDS011;4394;51.208;8.904;2023-07-08T07:50:53;3.83;;;3.50;;
8714;SDS011;4394;51.208;8.904;2023-07-08T07:53:41;5.35;;;3.90;;
8714;SDS011;4394;51.208;8.904;2023-07-08T07:56:29;4.77;;;4.10;;
8714;SDS011;4394;51.208;8.904;2023-07-08T07:59:19;6.70;;;4.30;;
8714;SDS011;4394;51.208;8.904;2023-07-08T08:02:07;5.47;;;4.40;;
8714;SDS011;4394;51.208;8.904;2023-07-08T08:04:58;4.23;;;3.60;;
8714;SDS011;4394;51.208;8.904;2023-07-08T08:07:47;4.03;;;3.63;;
8714;SDS011;4394;51.208;8.904;2023-07-08T08:10:35;7.87;;;4.60;;
8714;SDS011;4394;51.208;8.904;2023-07-08T08:13:23;6.90;;;4.47;;
8714;SDS011;4394;51.208;8.904;2023-07-08T08:16:12;4.83;;;3.57;;
8714;SDS011;4394;51.208;8.904;2023-07-08T08:19:00;10.47;;;5.37;;
8714;SDS011;4394;51.208;8.904;2023-07-08T08:21:48;6.67;;;3.90;;
8714;SDS011;4394;51.208;8.904;2023-07-08T08:24:37;11.07;;;4.57;;
8714;SDS011;4394;51.208;8.904;2023-07-08T08:27:25;6.50;;;4.00;;
8714;SDS011;4394;51.208;8.904;2023-07-08T08:30:13;5.65;;;4.47;;
8714;SDS011;4394;51.208;8.904;2023-07-08T08:33:02;3.97;;;3.67;;
8714;SDS011;4394;51.208;8.904;2023-07-08T08:35:50;6.30;;;4.07;;
8714;SDS011;4394;51.208;8.904;2023-07-08T08:38:38;4.33;;;3.93;;
8714;SDS011;4394;51.208;8.904;2023-07-08T08:41:29;6.63;;;4.17;;
8714;SDS011;4394;51.208;8.904;2023-07-08T08:44:20;7.63;;;3.90;;
8714;SDS011;4394;51.208;8.904;2023-07-08T08:47:16;8.23;;;4.27;;
8714;SDS011;4394;51.208;8.904;2023-07-08T08:50:30;4.70;;;3.83;;
8714;SDS011;4394;51.208;8.904;2023-07-08T08:53:20;6.43;;;3.90;;
8714;SDS011;4394;51.208;8.904;2023-07-08T08:56:14;4.57;;;4.18;;
8714;SDS011;4394;51.208;8.904;2023-07-08T08:59:11;4.60;;;3.92;;
8714;SDS011;4394;51.208;8.904;2023-07-08T09:02:09;4.72;;;3.85;;
8714;SDS011;4394;51.208;8.904;2023-07-08T09:05:13;4.85;;;4.13;;
8714;SDS011;4394;51.208;8.904;2023-07-08T09:08:03;4.78;;;3.72;;
8714;SDS011;4394;51.208;8.904;2023-07-08T09:10:56;3.78;;;3.47;;
8714;SDS011;4394;51.208;8.904;2023-07-08T09:13:48;4.25;;;3.85;;
8714;SDS011;4394;51.208;8.904;2023-07-08T09:16:42;4.30;;;3.90;;
8714;SDS011;4394;51.208;8.904;2023-07-08T09:19:38;4.30;;;3.80;;
8714;SDS011;4394;51.208;8.904;2023-07-08T09:22:31;4.95;;;4.13;;
8714;SDS011;4394;51.208;8.904;2023-07-08T09:25:25;4.57;;;4.10;;
8714;SDS011;4394;51.208;8.904;2023-07-08T09:28:17;4.93;;;4.00;;
8714;SDS011;4394;51.208;8.904;2023-07-08T09:31:06;5.47;;;3.92;;
8714;SDS011;4394;51.208;8.904;2023-07-08T09:34:05;5.18;;;3.50;;
8714;SDS011;4394;51.208;8.904;2023-07-08T09:36:54;6.40;;;4.00;;
8714;SDS011;4394;51.208;8.904;2023-07-08T09:39:42;5.10;;;3.65;;
8714;SDS011;4394;51.208;8.904;2023-07-08T09:42:32;6.30;;;4.32;;
8714;SDS011;4394;51.208;8.904;2023-07-08T09:45:22;4.95;;;4.10;;
8714;SDS011;4394;51.208;8.904;2023-07-08T09:48:14;4.30;;;3.90;;
8714;SDS011;4394;51.208;8.904;2023-07-08T09:51:05;4.80;;;4.38;;
8714;SDS011;4394;51.208;8.904;2023-07-08T09:53:54;4.78;;;4.30;;
8714;SDS011;4394;51.208;8.904;2023-07-08T09:56:43;4.05;;;3.65;;
8714;SDS011;4394;51.208;8.904;2023-07-08T09:59:36;6.70;;;4.72;;
8714;SDS011;4394;51.208;8.904;2023-07-08T10:02:30;5.32;;;4.13;;
8714;SDS011;4394;51.208;8.904;2023-07-08T10:05:21;5.68;;;4.25;;
8714;SDS011;4394;51.208;8.904;2023-07-08T10:08:13;4.63;;;4.18;;
8714;SDS011;4394;51.208;8.904;2023-07-08T10:11:03;5.78;;;4.85;;
8714;SDS011;4394;51.208;8.904;2023-07-08T10:14:01;6.25;;;4.53;;
8714;SDS011;4394;51.208;8.904;2023-07-08T10:16:59;5.90;;;4.43;;
8714;SDS011;4394;51.208;8.904;2023-07-08T10:19:47;5.60;;;4.10;;
8714;SDS011;4394;51.208;8.904;2023-07-08T10:22:38;5.00;;;4.50;;
8714;SDS011;4394;51.208;8.904;2023-07-08T10:25:35;5.70;;;4.53;;
8714;SDS011;4394;51.208;8.904;2023-07-08T10:28:33;4.32;;;3.92;;
8714;SDS011;4394;51.208;8.904;2023-07-08T10:31:30;5.25;;;4.00;;
8714;SDS011;4394;51.208;8.904;2023-07-08T10:34:24;5.70;;;4.55;;
8714;SDS011;4394;51.208;8.904;2023-07-08T10:37:22;7.03;;;4.55;;
8714;SDS011;4394;51.208;8.904;2023-07-08T10:40:27;4.75;;;4.20;;
8714;SDS011;4394;51.208;8.904;2023-07-08T10:43:37;4.47;;;4.13;;
8714;SDS011;4394;51.208;8.904;2023-07-08T10:46:37;5.65;;;4.45;;
8714;SDS011;4394;51.208;8.904;2023-07-08T10:49:39;5.18;;;4.57;;
8714;SDS011;4394;51.208;8.904;2023-07-08T10:52:45;4.80;;;4.30;;
8714;SDS011;4394;51.208;8.904;2023-07-08T10:55:46;5.38;;;4.78;;
8714;SDS011;4394;51.208;8.904;2023-07-08T10:58:46;5.15;;;4.63;;
8714;SDS011;4394;51.208;8.904;2023-07-08T11:01:58;5.03;;;4.47;;
8714;SDS011;4394;51.208;8.904;2023-07-08T11:05:04;6.38;;;4.32;;
8714;SDS011;4394;51.208;8.904;2023-07-08T11:08:03;6.82;;;4.90;;
8714;SDS011;4394;51.208;8.904;2023-07-08T11:10:58;4.82;;;4.32;;
8714;SDS011;4394;51.208;8.904;2023-07-08T11:14:03;5.30;;;4.30;;
8714;SDS011;4394;51.208;8.904;2023-07-08T11:16:57;5.07;;;4.57;;
8714;SDS011;4394;51.208;8.904;2023-07-08T11:19:57;5.70;;;4.32;;
8714;SDS011;4394;51.208;8.904;2023-07-08T11:22:50;5.20;;;4.70;;
8714;SDS011;4394;51.208;8.904;2023-07-08T11:25:42;4.85;;;4.38;;
8714;SDS011;4394;51.208;8.904;2023-07-08T11:28:32;5.65;;;4.35;;
8714;SDS011;4394;51.208;8.904;2023-07-08T11:31:20;5.70;;;4.50;;
8714;SDS011;4394;51.208;8.904;2023-07-08T11:34:11;5.47;;;4.20;;
8714;SDS011;4394;51.208;8.904;2023-07-08T11:37:01;4.95;;;4.45;;
8714;SDS011;4394;51.208;8.904;2023-07-08T11:39:53;5.35;;;4.82;;
8714;SDS011;4394;51.208;8.904;2023-07-08T11:42:46;4.55;;;4.15;;
8714;SDS011;4394;51.208;8.904;2023-07-08T11:45:46;5.18;;;4.38;;
8714;SDS011;4394;51.208;8.904;2023-07-08T11:48:38;5.30;;;4.80;;
8714;SDS011;4394;51.208;8.904;2023-07-08T11:51:31;5.40;;;4.82;;
8714;SDS011;4394;51.208;8.904;2023-07-08T11:54:26;5.93;;;4.63;;
8714;SDS011;4394;51.208;8.904;2023-07-08T11:57:17;4.80;;;4.30;;
8714;SDS011;4394;51.208;8.904;2023-07-08T12:00:17;5.47;;;4.80;;
8714;SDS011;4394;51.208;8.904;2023-07-08T12:03:21;5.97;;;4.35;;
8714;SDS011;4394;51.208;8.904;2023-07-08T12:09:34;6.57;;;4.40;;
8714;SDS011;4394;51.208;8.904;2023-07-08T12:12:25;5.00;;;4.50;;
8714;SDS011;4394;51.208;8.904;2023-07-08T12:15:20;5.25;;;4.75;;
8714;SDS011;4394;51.208;8.904;2023-07-08T12:18:12;5.97;;;4.60;;
8714;SDS011;4394;51.208;8.904;2023-07-08T12:21:04;4.70;;;4.00;;
8714;SDS011;4394;51.208;8.904;2023-07-08T12:23:53;5.47;;;4.22;;
8714;SDS011;4394;51.208;8.904;2023-07-08T12:26:41;5.20;;;4.55;;
8714;SDS011;4394;51.208;8.904;2023-07-08T12:29:31;5.68;;;4.15;;
8714;SDS011;4394;51.208;8.904;2023-07-08T12:32:19;40.45;;;16.75;;
8714;SDS011;4394;51.208;8.904;2023-07-08T12:35:17;7.13;;;4.78;;
8714;SDS011;4394;51.208;8.904;2023-07-08T12:38:14;5.55;;;4.20;;
8714;SDS011;4394;51.208;8.904;2023-07-08T12:41:09;4.60;;;4.20;;
8714;SDS011;4394;51.208;8.904;2023-07-08T12:43:59;5.10;;;4.50;;
8714;SDS011;4394;51.208;8.904;2023-07-08T12:46:48;5.00;;;4.50;;
8714;SDS011;4394;51.208;8.904;2023-07-08T12:49:40;4.40;;;4.00;;
8714;SDS011;4394;51.208;8.904;2023-07-08T12:52:28;4.75;;;4.35;;
8714;SDS011;4394;51.208;8.904;2023-07-08T12:55:18;5.25;;;4.75;;
8714;SDS011;4394;51.208;8.904;2023-07-08T12:58:08;6.05;;;4.57;;
8714;SDS011;4394;51.208;8.904;2023-07-08T13:01:01;5.43;;;4.32;;
8714;SDS011;4394;51.208;8.904;2023-07-08T13:03:52;5.40;;;4.30;;
8714;SDS011;4394;51.208;8.904;2023-07-08T13:06:43;6.13;;;4.70;;
8714;SDS011;4394;51.208;8.904;2023-07-08T13:09:34;7.88;;;4.70;;
8714;SDS011;4394;51.208;8.904;2023-07-08T13:12:26;5.40;;;4.68;;
8714;SDS011;4394;51.208;8.904;2023-07-08T13:15:18;4.47;;;4.07;;
8714;SDS011;4394;51.208;8.904;2023-07-08T13:18:11;6.88;;;4.70;;
8714;SDS011;4394;51.208;8.904;2023-07-08T13:21:02;4.90;;;4.40;;
8714;SDS011;4394;51.208;8.904;2023-07-08T13:23:53;5.65;;;4.35;;
8714;SDS011;4394;51.208;8.904;2023-07-08T13:26:41;5.85;;;4.80;;
8714;SDS011;4394;51.208;8.904;2023-07-08T13:29:35;5.00;;;4.50;;
8714;SDS011;4394;51.208;8.904;2023-07-08T13:32:28;6.13;;;5.05;;
8714;SDS011;4394;51.208;8.904;2023-07-08T13:35:22;5.35;;;4.85;;
8714;SDS011;4394;51.208;8.904;2023-07-08T13:38:12;6.43;;;5.07;;
8714;SDS011;4394;51.208;8.904;2023-07-08T13:41:03;5.05;;;4.55;;
8714;SDS011;4394;51.208;8.904;2023-07-08T13:43:53;6.05;;;4.63;;
8714;SDS011;4394;51.208;8.904;2023-07-08T13:46:45;5.55;;;4.95;;
8714;SDS011;4394;51.208;8.904;2023-07-08T13:49:42;5.97;;;5.00;;
8714;SDS011;4394;51.208;8.904;2023-07-08T13:52:32;6.25;;;4.60;;
8714;SDS011;4394;51.208;8.904;2023-07-08T13:55:21;5.35;;;4.85;;
8714;SDS011;4394;51.208;8.904;2023-07-08T13:58:13;5.47;;;4.93;;
8714;SDS011;4394;51.208;8.904;2023-07-08T14:01:04;5.60;;;4.78;;
8714;SDS011;4394;51.208;8.904;2023-07-08T14:03:58;6.03;;;4.85;;
8714;SDS011;4394;51.208;8.904;2023-07-08T14:06:49;6.28;;;4.72;;
8714;SDS011;4394;51.208;8.904;2023-07-08T14:09:37;7.28;;;4.82;;
8714;SDS011;4394;51.208;8.904;2023-07-08T14:12:25;7.00;;;5.25;;
8714;SDS011;4394;51.208;8.904;2023-07-08T14:15:13;8.02;;;5.07;;
8714;SDS011;4394;51.208;8.904;2023-07-08T14:18:01;5.30;;;4.53;;
8714;SDS011;4394;51.208;8.904;2023-07-08T14:20:51;6.15;;;5.25;;
8714;SDS011;4394;51.208;8.904;2023-07-08T14:23:40;5.38;;;4.57;;
8714;SDS011;4394;51.208;8.904;2023-07-08T14:26:29;6.93;;;4.65;;
8714;SDS011;4394;51.208;8.904;2023-07-08T14:29:17;5.90;;;4.40;;
8714;SDS011;4394;51.208;8.904;2023-07-08T14:32:08;6.28;;;4.40;;
8714;SDS011;4394;51.208;8.904;2023-07-08T14:35:00;6.63;;;4.35;;
8714;SDS011;4394;51.208;8.904;2023-07-08T14:38:04;6.20;;;4.60;;
8714;SDS011;4394;51.208;8.904;2023-07-08T14:40:56;6.28;;;4.93;;
8714;SDS011;4394;51.208;8.904;2023-07-08T14:43:44;7.07;;;5.03;;
8714;SDS011;4394;51.208;8.904;2023-07-08T14:46:32;6.97;;;5.57;;
8714;SDS011;4394;51.208;8.904;2023-07-08T14:49:22;7.10;;;6.40;;
8714;SDS011;4394;51.208;8.904;2023-07-08T14:52:11;10.52;;;7.90;;
8714;SDS011;4394;51.208;8.904;2023-07-08T14:55:01;7.35;;;5.40;;
8714;SDS011;4394;51.208;8.904;2023-07-08T14:57:50;5.20;;;4.70;;
8714;SDS011;4394;51.208;8.904;2023-07-08T15:00:39;5.07;;;4.53;;
8714;SDS011;4394;51.208;8.904;2023-07-08T15:03:27;11.55;;;9.43;;
8714;SDS011;4394;51.208;8.904;2023-07-08T15:06:15;7.97;;;5.75;;
8714;SDS011;4394;51.208;8.904;2023-07-08T15:09:03;6.32;;;5.05;;
8714;SDS011;4394;51.208;8.904;2023-07-08T15:11:53;7.72;;;4.82;;
8714;SDS011;4394;51.208;8.904;2023-07-08T15:14:41;5.90;;;5.25;;
8714;SDS011;4394;51.208;8.904;2023-07-08T15:17:32;12.07;;;10.73;;
8714;SDS011;4394;51.208;8.904;2023-07-08T15:20:20;6.20;;;5.35;;
8714;SDS011;4394;51.208;8.904;2023-07-08T15:23:09;6.22;;;4.90;;
8714;SDS011;4394;51.208;8.904;2023-07-08T15:25:58;5.95;;;5.22;;
8714;SDS011;4394;51.208;8.904;2023-07-08T15:28:50;5.90;;;5.00;;
8714;SDS011;4394;51.208;8.904;2023-07-08T15:31:39;5.55;;;5.03;;
8714;SDS011;4394;51.208;8.904;2023-07-08T15:34:27;5.57;;;4.97;;
8714;SDS011;4394;51.208;8.904;2023-07-08T15:37:15;5.38;;;4.88;;
8714;SDS011;4394;51.208;8.904;2023-07-08T15:40:04;5.95;;;5.35;;
8714;SDS011;4394;51.208;8.904;2023-07-08T15:42:55;6.25;;;5.25;;
8714;SDS011;4394;51.208;8.904;2023-07-08T15:45:46;5.25;;;4.78;;
8714;SDS011;4394;51.208;8.904;2023-07-08T15:48:35;8.52;;;6.32;;
8714;SDS011;4394;51.208;8.904;2023-07-08T15:51:23;6.88;;;5.45;;
8714;SDS011;4394;51.208;8.904;2023-07-08T15:54:11;10.52;;;5.72;;
8714;SDS011;4394;51.208;8.904;2023-07-08T15:56:59;12.18;;;10.75;;
8714;SDS011;4394;51.208;8.904;2023-07-08T15:59:51;14.57;;;13.07;;
8714;SDS011;4394;51.208;8.904;2023-07-08T16:02:41;23.50;;;21.20;;
8714;SDS011;4394;51.208;8.904;2023-07-08T16:05:29;9.35;;;6.80;;
8714;SDS011;4394;51.208;8.904;2023-07-08T16:08:20;6.10;;;5.50;;
8714;SDS011;4394;51.208;8.904;2023-07-08T16:11:12;5.60;;;5.10;;
8714;SDS011;4394;51.208;8.904;2023-07-08T16:14:03;5.55;;;5.05;;
8714;SDS011;4394;51.208;8.904;2023-07-08T16:16:51;6.18;;;4.78;;
8714;SDS011;4394;51.208;8.904;2023-07-08T16:19:41;27.90;;;24.48;;
8714;SDS011;4394;51.208;8.904;2023-07-08T16:23:03;33.25;;;30.35;;
8714;SDS011;4394;51.208;8.904;2023-07-08T16:25:51;16.77;;;15.05;;
8714;SDS011;4394;51.208;8.904;2023-07-08T16:28:41;12.48;;;11.20;;
8714;SDS011;4394;51.208;8.904;2023-07-08T16:31:31;13.07;;;11.82;;
8714;SDS011;4394;51.208;8.904;2023-07-08T16:34:19;10.60;;;9.50;;
8714;SDS011;4394;51.208;8.904;2023-07-08T16:37:07;16.45;;;14.95;;
8714;SDS011;4394;51.208;8.904;2023-07-08T16:39:56;14.43;;;12.98;;
8714;SDS011;4394;51.208;8.904;2023-07-08T16:42:45;16.90;;;15.15;;
8714;SDS011;4394;51.208;8.904;2023-07-08T16:45:36;7.88;;;5.80;;
8714;SDS011;4394;51.208;8.904;2023-07-08T16:48:24;5.45;;;4.95;;
8714;SDS011;4394;51.208;8.904;2023-07-08T16:51:12;5.85;;;5.35;;
8714;SDS011;4394;51.208;8.904;2023-07-08T16:54:08;8.60;;;4.78;;
8714;SDS011;4394;51.208;8.904;2023-07-08T16:57:00;7.25;;;5.40;;
8714;SDS011;4394;51.208;8.904;2023-07-08T16:59:48;5.07;;;4.60;;
8714;SDS011;4394;51.208;8.904;2023-07-08T17:02:36;6.43;;;5.20;;
8714;SDS011;4394;51.208;8.904;2023-07-08T17:05:25;12.70;;;11.48;;
8714;SDS011;4394;51.208;8.904;2023-07-08T17:08:16;6.53;;;5.80;;
8714;SDS011;4394;51.208;8.904;2023-07-08T17:11:04;6.82;;;5.82;;
8714;SDS011;4394;51.208;8.904;2023-07-08T17:13:54;51.92;;;46.95;;
8714;SDS011;4394;51.208;8.904;2023-07-08T17:16:42;13.98;;;12.57;;
8714;SDS011;4394;51.208;8.904;2023-07-08T17:19:34;9.95;;;7.15;;
8714;SDS011;4394;51.208;8.904;2023-07-08T17:22:22;22.65;;;17.67;;
8714;SDS011;4394;51.208;8.904;2023-07-08T17:25:15;15.02;;;12.65;;
8714;SDS011;4394;51.208;8.904;2023-07-08T17:28:05;8.52;;;5.85;;
8714;SDS011;4394;51.208;8.904;2023-07-08T17:30:54;6.03;;;5.40;;
8714;SDS011;4394;51.208;8.904;2023-07-08T17:33:43;15.68;;;14.13;;
8714;SDS011;4394;51.208;8.904;2023-07-08T17:36:31;29.77;;;26.90;;
8714;SDS011;4394;51.208;8.904;2023-07-08T17:39:22;40.42;;;35.85;;